createdAt,value
2018-09-06T00:01:42.353Z,81.88
2018-09-06T00:04:16.939Z,82.58
2018-09-06T00:06:51.582Z,82.03
2018-09-06T00:09:26.241Z,82.47
2018-09-06T00:12:01.292Z,82.22
2018-09-06T00:14:35.725Z,81.85
2018-09-06T00:17:10.269Z,80.17
2018-09-06T00:19:44.881Z,79.41
2018-09-06T00:22:19.422Z,78.70
2018-09-06T00:24:53.976Z,77.17
2018-09-06T00:27:28.510Z,75.88
2018-09-06T00:30:03.098Z,76.10
2018-09-06T00:32:37.606Z,75.63
2018-09-06T00:35:12.273Z,74.66
2018-09-06T00:37:47.010Z,73.54
2018-09-06T00:40:21.703Z,74.08
2018-09-06T00:42:56.197Z,73.82
2018-09-06T00:45:30.886Z,74.05
2018-09-06T00:48:05.488Z,74.61
2018-09-06T00:50:40.815Z,74.64
2018-09-06T00:53:15.397Z,75.53
2018-09-06T00:55:50.039Z,75.90
2018-09-06T00:58:24.946Z,76.41
2018-09-06T01:00:59.369Z,76.19
2018-09-06T01:03:34.029Z,76.19
2018-09-06T01:06:08.693Z,76.74
2018-09-06T01:08:43.572Z,76.98
2018-09-06T01:11:18.516Z,76.71
2018-09-06T01:13:53.537Z,76.79
2018-09-06T01:16:28.572Z,76.92
2018-09-06T01:19:03.280Z,76.60
2018-09-06T01:21:38.200Z,76.72
2018-09-06T01:24:13.472Z,76.96
2018-09-06T01:26:48.335Z,76.65
2018-09-06T01:29:23.301Z,76.83
2018-09-06T01:31:57.915Z,76.72
2018-09-06T01:34:32.693Z,76.88
2018-09-06T01:37:09.348Z,76.38
2018-09-06T01:39:44.187Z,76.04
2018-09-06T01:42:18.956Z,75.92
2018-09-06T01:44:53.862Z,75.96
2018-09-06T01:47:28.323Z,75.92
2018-09-06T01:50:02.926Z,75.46
2018-09-06T01:52:38.226Z,75.20
2018-09-06T01:55:13.176Z,74.60
2018-09-06T01:57:47.833Z,74.56
2018-09-06T02:00:22.249Z,74.43
2018-09-06T02:02:56.810Z,74.34
2018-09-06T02:05:35.541Z,75.71
2018-09-06T02:08:10.074Z,75.10
2018-09-06T02:10:45.068Z,75.50
2018-09-06T02:13:19.720Z,75.69
2018-09-06T02:15:54.558Z,75.57
2018-09-06T02:18:29.193Z,76.91
2018-09-06T02:21:03.956Z,77.38
2018-09-06T02:23:38.593Z,78.42
2018-09-06T02:26:13.541Z,79.10
2018-09-06T02:28:48.319Z,80.13
2018-09-06T02:31:22.899Z,80.51
2018-09-06T02:33:57.883Z,81.17
2018-09-06T02:36:32.403Z,81.92
2018-09-06T02:39:07.760Z,82.49
2018-09-06T02:41:42.385Z,83.47
2018-09-06T02:44:36.326Z,84.34
2018-09-06T02:47:11.003Z,85.15
2018-09-06T02:49:53.293Z,85.21
2018-09-06T02:52:27.889Z,85.81
2018-09-06T02:55:02.761Z,87.00
2018-09-06T02:57:37.607Z,86.73
2018-09-06T03:00:12.164Z,86.82
2018-09-06T03:02:46.878Z,87.81
2018-09-06T03:05:21.660Z,87.96
2018-09-06T03:07:57.624Z,88.28
2018-09-06T03:10:38.844Z,88.30
2018-09-06T03:13:13.390Z,88.68
2018-09-06T03:15:47.966Z,89.07
2018-09-06T03:18:22.978Z,88.76
2018-09-06T03:20:57.524Z,88.96
2018-09-06T03:23:32.403Z,89.63
2018-09-06T03:26:12.249Z,89.53
2018-09-06T03:28:49.626Z,89.38
2018-09-06T03:31:24.162Z,90.21
2018-09-06T03:34:11.742Z,89.75
2018-09-06T03:36:46.284Z,90.01
2018-09-06T03:39:20.847Z,90.64
2018-09-06T03:41:55.318Z,90.40
2018-09-06T03:44:30.247Z,90.83
2018-09-06T03:47:04.682Z,90.42
2018-09-06T03:49:39.427Z,91.14
2018-09-06T03:52:14.162Z,90.40
2018-09-06T03:54:48.873Z,90.65
2018-09-06T03:57:23.481Z,90.41
2018-09-06T03:59:58.353Z,91.59
2018-09-06T04:02:33.165Z,95.15
2018-09-06T04:05:21.968Z,98.12
2018-09-06T04:08:10.133Z,98.65
2018-09-06T04:10:44.937Z,100.00
2018-09-06T04:13:19.981Z,100.00
2018-09-06T04:15:55.702Z,100.00
2018-09-06T04:18:30.232Z,100.00
2018-09-06T04:21:10.849Z,100.00
2018-09-06T04:23:45.628Z,100.00
2018-09-06T04:26:20.510Z,100.00
2018-09-06T04:28:55.160Z,100.00
2018-09-06T04:31:29.863Z,100.00
2018-09-06T04:34:04.521Z,100.00
2018-09-06T04:36:39.480Z,100.00
2018-09-06T04:39:14.260Z,100.00
2018-09-06T04:41:48.889Z,100.00
2018-09-06T04:44:24.016Z,100.00
2018-09-06T04:46:58.766Z,100.00
2018-09-06T04:49:33.817Z,100.00
2018-09-06T04:52:08.339Z,100.00
2018-09-06T04:54:43.026Z,100.00
2018-09-06T04:57:17.694Z,100.00
2018-09-06T04:59:52.346Z,100.00
2018-09-06T05:02:26.952Z,100.00
2018-09-06T05:05:01.587Z,100.00
2018-09-06T05:07:36.368Z,100.00
2018-09-06T05:10:10.954Z,100.00
2018-09-06T05:12:45.589Z,100.00
2018-09-06T05:15:20.296Z,100.00
2018-09-06T05:17:54.992Z,100.00
2018-09-06T05:20:29.604Z,100.00
2018-09-06T05:23:04.929Z,100.00
2018-09-06T05:25:39.743Z,100.00
2018-09-06T05:28:14.273Z,100.00
2018-09-06T05:30:48.928Z,100.00
2018-09-06T05:33:23.702Z,100.00
2018-09-06T05:35:58.513Z,100.00
2018-09-06T05:38:33.181Z,100.00
2018-09-06T05:41:07.913Z,100.00
2018-09-06T05:43:42.449Z,100.00
2018-09-06T05:46:17.295Z,100.00
2018-09-06T05:48:51.906Z,100.00
2018-09-06T05:51:27.002Z,100.00
2018-09-06T05:54:01.588Z,100.00
2018-09-06T05:56:36.191Z,100.00
2018-09-06T05:59:10.831Z,100.00
2018-09-06T06:01:45.538Z,100.00
2018-09-06T06:04:20.240Z,100.00
2018-09-06T06:06:54.928Z,100.00
2018-09-06T06:09:29.491Z,100.00
2018-09-06T06:12:04.575Z,100.00
2018-09-06T06:14:39.388Z,100.00
2018-09-06T06:17:13.940Z,100.00
2018-09-06T06:19:48.675Z,100.00
2018-09-06T06:22:23.293Z,100.00
2018-09-06T06:24:58.088Z,100.00
2018-09-06T06:27:32.847Z,100.00
2018-09-06T06:30:07.353Z,100.00
2018-09-06T06:32:42.025Z,100.00
2018-09-06T06:35:16.783Z,100.00
2018-09-06T06:37:51.263Z,100.00
2018-09-06T06:40:25.937Z,100.00
2018-09-06T06:43:00.511Z,100.00
2018-09-06T06:45:35.165Z,100.00
2018-09-06T06:48:09.673Z,100.00
2018-09-06T06:50:44.156Z,100.00
2018-09-06T06:53:18.819Z,100.00
2018-09-06T06:55:53.327Z,100.00
2018-09-06T06:58:27.949Z,100.00
2018-09-06T07:01:02.776Z,100.00
2018-09-06T07:03:37.386Z,100.00
2018-09-06T07:06:11.981Z,100.00
2018-09-06T07:08:46.564Z,100.00
2018-09-06T07:11:21.258Z,100.00
2018-09-06T07:13:55.963Z,100.00
2018-09-06T07:16:30.584Z,100.00
2018-09-06T07:19:05.249Z,100.00
2018-09-06T07:21:39.861Z,100.00
2018-09-06T07:24:14.496Z,100.00
2018-09-06T07:26:49.132Z,100.00
2018-09-06T07:29:23.654Z,100.00
2018-09-06T07:31:58.551Z,100.00
2018-09-06T07:34:33.218Z,100.00
2018-09-06T07:37:07.760Z,100.00
2018-09-06T07:39:42.739Z,100.00
2018-09-06T07:45:16.883Z,100.00
2018-09-06T07:47:51.886Z,100.00
2018-09-06T07:50:26.523Z,100.00
2018-09-06T07:53:01.365Z,100.00
2018-09-06T07:55:36.088Z,100.00
2018-09-06T07:58:10.992Z,100.00
2018-09-06T08:00:45.461Z,100.00
2018-09-06T08:03:25.744Z,100.00
2018-09-06T08:06:00.744Z,100.00
2018-09-06T08:08:35.168Z,100.00
2018-09-06T08:11:19.977Z,100.00
2018-09-06T08:13:54.481Z,100.00
2018-09-06T08:16:29.503Z,100.00
2018-09-06T08:19:04.107Z,100.00
2018-09-06T08:21:38.812Z,100.00
2018-09-06T08:24:13.438Z,100.00
2018-09-06T08:26:48.114Z,100.00
2018-09-06T08:29:22.849Z,100.00
2018-09-06T08:31:57.424Z,100.00
2018-09-06T08:34:31.893Z,100.00
2018-09-06T08:37:07.195Z,100.00
2018-09-06T08:39:42.187Z,100.00
2018-09-06T08:42:17.117Z,100.00
2018-09-06T08:44:51.807Z,100.00
2018-09-06T08:47:27.073Z,100.00
2018-09-06T08:50:01.652Z,100.00
2018-09-06T08:52:36.128Z,100.00
2018-09-06T08:55:11.241Z,100.00
2018-09-06T08:57:46.109Z,100.00
2018-09-06T09:00:20.772Z,100.00
2018-09-06T09:02:55.429Z,100.00
2018-09-06T09:05:30.317Z,100.00
2018-09-06T09:08:05.645Z,100.00
2018-09-06T09:10:40.317Z,100.00
2018-09-06T09:13:14.898Z,100.00
2018-09-06T09:15:49.907Z,100.00
2018-09-06T09:18:24.377Z,100.00
2018-09-06T09:20:58.998Z,100.00
2018-09-06T09:23:33.473Z,100.00
2018-09-06T09:26:08.126Z,100.00
2018-09-06T09:28:42.652Z,100.00
2018-09-06T09:31:17.300Z,100.00
2018-09-06T09:33:59.960Z,100.00
2018-09-06T09:36:34.792Z,100.00
2018-09-06T09:39:10.357Z,100.00
2018-09-06T09:41:45.220Z,100.00
2018-09-06T09:44:33.014Z,100.00
2018-09-06T09:49:41.473Z,100.00
2018-09-06T09:52:16.001Z,100.00
2018-09-06T09:54:50.770Z,100.00
2018-09-06T09:57:25.422Z,100.00
2018-09-06T09:59:59.903Z,100.00
2018-09-06T10:02:39.823Z,100.00
2018-09-06T10:05:19.833Z,100.00
2018-09-06T10:07:55.788Z,99.86
2018-09-06T10:10:30.290Z,100.00
2018-09-06T10:13:04.841Z,100.00
2018-09-06T10:15:40.087Z,100.00
2018-09-06T10:18:14.802Z,100.00
2018-09-06T10:20:49.524Z,100.00
2018-09-06T10:23:24.422Z,100.00
2018-09-06T10:25:59.204Z,100.00
2018-09-06T10:28:33.773Z,100.00
2018-09-06T10:31:08.610Z,100.00
2018-09-06T10:33:43.388Z,100.00
2018-09-06T10:36:18.345Z,100.00
2018-09-06T10:38:53.043Z,100.00
2018-09-06T10:41:27.712Z,100.00
2018-09-06T10:44:02.564Z,100.00
2018-09-06T10:46:37.217Z,100.00
2018-09-06T10:49:11.810Z,100.00
2018-09-06T10:51:46.636Z,100.00
2018-09-06T10:54:21.237Z,100.00
2018-09-06T10:56:55.789Z,100.00
2018-09-06T10:59:30.809Z,100.00
2018-09-06T11:02:05.556Z,100.00
2018-09-06T11:04:40.300Z,100.00
2018-09-06T11:07:14.888Z,100.00
2018-09-06T11:09:49.591Z,100.00
2018-09-06T11:12:30.412Z,100.00
2018-09-06T11:15:16.731Z,100.00
2018-09-06T11:18:10.766Z,100.00
2018-09-06T11:20:45.893Z,100.00
2018-09-06T11:23:20.587Z,100.00
2018-09-06T11:25:55.105Z,100.00
2018-09-06T11:28:29.682Z,100.00
2018-09-06T11:31:04.448Z,99.10
2018-09-06T11:33:39.159Z,100.00
2018-09-06T11:36:13.849Z,100.00
2018-09-06T11:38:48.668Z,98.49
2018-09-06T11:41:23.125Z,99.09
2018-09-06T11:43:58.000Z,99.53
2018-09-06T11:46:32.606Z,100.00
2018-09-06T11:49:07.021Z,99.66
2018-09-06T11:51:41.594Z,99.48
2018-09-06T11:54:16.211Z,100.00
2018-09-06T11:56:50.998Z,99.04
2018-09-06T11:59:26.027Z,100.00
2018-09-06T12:02:00.500Z,99.10
2018-09-06T12:04:35.147Z,97.57
2018-09-06T12:07:10.129Z,97.96
2018-09-06T12:09:44.681Z,99.17
2018-09-06T12:12:19.443Z,99.38
2018-09-06T12:14:54.116Z,97.46
2018-09-06T12:17:28.947Z,96.07
2018-09-06T12:20:03.581Z,98.61
2018-09-06T12:22:38.521Z,96.52
2018-09-06T12:25:13.377Z,94.37
2018-09-06T12:27:48.248Z,95.03
2018-09-06T12:30:23.305Z,95.51
2018-09-06T12:32:58.200Z,94.75
2018-09-06T12:35:32.807Z,92.56
2018-09-06T12:38:07.494Z,92.58
2018-09-06T12:40:42.096Z,93.48
2018-09-06T12:43:17.013Z,94.67
2018-09-06T12:45:51.457Z,96.32
2018-09-06T12:48:25.910Z,94.99
2018-09-06T12:51:00.364Z,95.33
2018-09-06T12:53:35.023Z,96.79
2018-09-06T12:56:09.611Z,96.89
2018-09-06T12:58:44.841Z,95.76
2018-09-06T13:01:19.472Z,93.50
2018-09-06T13:03:54.107Z,92.38
2018-09-06T13:06:29.336Z,89.25
2018-09-06T13:09:05.796Z,88.89
2018-09-06T13:11:40.476Z,87.86
2018-09-06T13:14:14.953Z,87.41
2018-09-06T13:16:49.649Z,83.55
2018-09-06T13:19:24.263Z,85.84
2018-09-06T13:21:58.905Z,86.74
2018-09-06T13:24:33.596Z,86.59
2018-09-06T13:27:08.384Z,84.62
2018-09-06T13:29:43.587Z,87.72
2018-09-06T13:32:17.958Z,86.56
2018-09-06T13:34:52.429Z,86.13
2018-09-06T13:37:27.143Z,85.69
2018-09-06T13:40:01.998Z,85.71
2018-09-06T13:42:36.573Z,82.89
2018-09-06T13:45:11.155Z,83.41
2018-09-06T13:47:45.772Z,81.93
2018-09-06T13:50:20.336Z,81.45
2018-09-06T13:55:52.218Z,79.43
2018-09-06T13:58:26.880Z,78.90
2018-09-06T14:01:01.477Z,83.46
2018-09-06T14:03:36.395Z,85.02
2018-09-06T14:06:11.448Z,82.13
2018-09-06T14:08:46.677Z,83.23
2018-09-06T14:11:21.314Z,84.95
2018-09-06T14:13:55.884Z,83.99
2018-09-06T14:16:30.986Z,85.07
2018-09-06T14:19:05.741Z,86.83
2018-09-06T14:21:45.233Z,88.12
2018-09-06T14:24:19.965Z,87.30
2018-09-06T14:26:54.944Z,88.71
2018-09-06T14:29:30.188Z,89.35
2018-09-06T14:32:04.926Z,90.31
2018-09-06T14:34:39.677Z,88.50
2018-09-06T14:37:14.165Z,89.55
2018-09-06T14:39:49.190Z,86.01
2018-09-06T14:42:29.560Z,88.52
2018-09-06T14:45:05.107Z,85.20
2018-09-06T14:47:40.110Z,83.31
2018-09-06T14:50:14.805Z,84.11
2018-09-06T14:52:55.429Z,81.83
2018-09-06T14:55:34.559Z,80.37
2018-09-06T14:58:09.132Z,81.60
2018-09-06T15:00:43.774Z,82.80
2018-09-06T15:03:18.588Z,83.95
2018-09-06T15:05:53.220Z,78.39
2018-09-06T15:08:27.900Z,81.91
2018-09-06T15:11:02.448Z,85.42
2018-09-06T15:13:37.840Z,85.83
2018-09-06T15:16:12.609Z,87.53
2018-09-06T15:18:47.765Z,86.80
2018-09-06T15:21:22.589Z,89.34
2018-09-06T15:23:57.048Z,87.36
2018-09-06T15:26:56.590Z,87.72
2018-09-06T15:29:31.165Z,87.23
2018-09-06T15:32:06.063Z,87.95
2018-09-06T15:34:41.168Z,86.08
2018-09-06T15:37:15.987Z,87.06
2018-09-06T15:39:50.698Z,89.05
2018-09-06T15:42:26.520Z,89.15
2018-09-06T15:45:01.152Z,91.01
2018-09-06T15:47:35.720Z,90.28
2018-09-06T15:50:10.347Z,92.02
2018-09-06T15:52:45.159Z,92.66
2018-09-06T15:55:19.771Z,90.53
2018-09-06T15:57:54.320Z,91.39
2018-09-06T16:00:29.221Z,91.64
2018-09-06T16:03:03.568Z,91.78
2018-09-06T16:05:38.101Z,93.08
2018-09-06T16:08:12.573Z,91.79
2018-09-06T16:10:47.036Z,92.13
2018-09-06T16:13:23.025Z,92.46
2018-09-06T16:15:58.023Z,92.37
2018-09-06T16:18:34.644Z,93.51
2018-09-06T16:21:09.353Z,94.37
2018-09-06T16:23:44.098Z,95.52
2018-09-06T16:26:18.725Z,92.87
2018-09-06T16:28:53.821Z,93.68
2018-09-06T16:31:28.569Z,93.25
2018-09-06T16:34:03.177Z,96.58
2018-09-06T16:36:37.797Z,94.26
2018-09-06T16:39:12.819Z,95.08
2018-09-06T16:41:47.481Z,96.25
2018-09-06T16:44:22.025Z,96.16
2018-09-06T16:46:56.983Z,95.27
2018-09-06T16:49:31.707Z,96.15
2018-09-06T16:52:06.317Z,97.39
2018-09-06T16:54:40.853Z,96.47
2018-09-06T16:57:15.669Z,96.34
2018-09-06T16:59:50.337Z,97.21
2018-09-06T17:02:25.052Z,96.58
2018-09-06T17:05:00.394Z,97.87
2018-09-06T17:07:35.289Z,97.42
2018-09-06T17:10:09.856Z,98.65
2018-09-06T17:12:44.416Z,97.29
2018-09-06T17:15:19.373Z,96.72
2018-09-06T17:17:53.948Z,97.29
2018-09-06T17:20:29.067Z,95.76
2018-09-06T17:23:03.818Z,97.54
2018-09-06T17:25:38.582Z,97.81
2018-09-06T17:28:13.502Z,96.86
2018-09-06T17:30:48.829Z,95.85
2018-09-06T17:33:23.784Z,96.38
2018-09-06T17:35:59.220Z,96.75
2018-09-06T17:38:34.102Z,97.30
2018-09-06T17:41:08.521Z,96.38
2018-09-06T17:43:43.197Z,97.00
2018-09-06T17:46:18.121Z,96.39
2018-09-06T17:48:52.984Z,96.89
2018-09-06T17:51:27.648Z,95.74
2018-09-06T17:54:02.318Z,95.18
2018-09-06T17:56:37.097Z,96.54
2018-09-06T17:59:11.660Z,98.15
2018-09-06T18:01:46.157Z,96.86
2018-09-06T18:04:20.725Z,94.50
2018-09-06T18:06:55.484Z,94.78
2018-09-06T18:09:30.134Z,93.24
2018-09-06T18:12:05.473Z,94.72
2018-09-06T18:14:40.211Z,95.19
2018-09-06T18:17:14.910Z,95.72
2018-09-06T18:19:49.599Z,95.32
2018-09-06T18:22:24.289Z,95.50
2018-09-06T18:24:58.962Z,96.09
2018-09-06T18:27:33.652Z,95.99
2018-09-06T18:30:08.268Z,96.25
2018-09-06T18:32:42.852Z,96.28
2018-09-06T18:35:17.765Z,97.10
2018-09-06T18:37:52.442Z,97.18
2018-09-06T18:40:27.011Z,97.05
2018-09-06T18:43:01.564Z,97.99
2018-09-06T18:45:36.213Z,98.37
2018-09-06T18:48:10.895Z,98.73
2018-09-06T18:50:45.553Z,98.69
2018-09-06T18:53:20.173Z,100.00
2018-09-06T18:55:54.870Z,99.78
2018-09-06T18:58:29.669Z,100.00
2018-09-06T19:01:04.494Z,100.00
2018-09-06T19:03:39.266Z,100.00
2018-09-06T19:06:13.973Z,100.00
2018-09-06T19:08:49.059Z,100.00
2018-09-06T19:11:23.813Z,100.00
2018-09-06T19:13:58.540Z,100.00
2018-09-06T19:16:33.384Z,100.00
2018-09-06T19:19:07.817Z,100.00
2018-09-06T19:21:42.417Z,100.00
2018-09-06T19:24:17.260Z,100.00
2018-09-06T19:26:51.925Z,100.00
2018-09-06T19:29:26.547Z,100.00
2018-09-06T19:32:01.127Z,100.00
2018-09-06T19:34:35.660Z,100.00
2018-09-06T19:37:10.566Z,100.00
2018-09-06T19:39:45.109Z,100.00
2018-09-06T19:42:19.744Z,100.00
2018-09-06T19:44:54.394Z,100.00
2018-09-06T19:47:29.189Z,100.00
2018-09-06T19:50:03.822Z,100.00
2018-09-06T19:52:38.378Z,100.00
2018-09-06T19:55:12.929Z,100.00
2018-09-06T19:57:47.716Z,100.00
2018-09-06T20:00:22.340Z,100.00
2018-09-06T20:02:56.944Z,100.00
2018-09-06T20:05:31.561Z,100.00
2018-09-06T20:08:06.388Z,100.00
2018-09-06T20:10:41.065Z,100.00
2018-09-06T20:13:15.813Z,100.00
2018-09-06T20:15:50.373Z,100.00
2018-09-06T20:18:25.136Z,100.00
2018-09-06T20:20:59.753Z,100.00
2018-09-06T20:23:34.416Z,100.00
2018-09-06T20:26:09.195Z,100.00
2018-09-06T20:28:43.852Z,100.00
2018-09-06T20:31:18.468Z,100.00
2018-09-06T20:33:53.129Z,100.00
2018-09-06T20:36:27.721Z,100.00
2018-09-06T20:39:02.340Z,100.00
2018-09-06T20:41:36.803Z,100.00
2018-09-06T20:44:11.371Z,100.00
2018-09-06T20:46:45.846Z,100.00
2018-09-06T20:49:20.444Z,100.00
2018-09-06T20:51:55.201Z,100.00
2018-09-06T20:54:29.729Z,100.00
2018-09-06T20:57:04.659Z,100.00
2018-09-06T20:59:39.348Z,100.00
2018-09-06T21:02:19.425Z,100.00
2018-09-06T21:04:54.606Z,100.00
2018-09-06T21:07:29.203Z,100.00
2018-09-06T21:10:04.380Z,100.00
2018-09-06T21:12:38.936Z,100.00
2018-09-06T21:15:13.688Z,100.00
2018-09-06T21:17:48.248Z,100.00
2018-09-06T21:20:22.772Z,100.00
2018-09-06T21:22:57.385Z,100.00
2018-09-06T21:25:31.954Z,100.00
2018-09-06T21:28:06.708Z,100.00
2018-09-06T21:30:41.253Z,100.00
2018-09-06T21:33:15.855Z,100.00
2018-09-06T21:35:50.575Z,100.00
2018-09-06T21:38:25.252Z,100.00
2018-09-06T21:40:59.953Z,100.00
2018-09-06T21:43:34.649Z,100.00
2018-09-06T21:46:09.233Z,100.00
2018-09-06T21:48:43.784Z,100.00
2018-09-06T21:51:18.577Z,100.00
2018-09-06T21:53:53.251Z,100.00
2018-09-06T21:56:27.753Z,100.00
2018-09-06T21:59:02.441Z,100.00
2018-09-06T22:01:37.474Z,100.00
2018-09-06T22:04:12.186Z,100.00
2018-09-06T22:06:46.976Z,100.00
2018-09-06T22:09:21.346Z,100.00
2018-09-06T22:11:55.996Z,100.00
2018-09-06T22:14:30.581Z,100.00
2018-09-06T22:17:05.452Z,100.00
2018-09-06T22:19:40.173Z,100.00
2018-09-06T22:22:14.792Z,100.00
2018-09-06T22:24:49.459Z,100.00
2018-09-06T22:27:24.083Z,100.00
2018-09-06T22:29:58.814Z,100.00
2018-09-06T22:32:33.437Z,100.00
2018-09-06T22:35:08.344Z,100.00
2018-09-06T22:37:43.468Z,100.00
2018-09-06T22:40:18.318Z,100.00
2018-09-06T22:42:52.989Z,100.00
2018-09-06T22:45:27.664Z,100.00
2018-09-06T22:48:02.598Z,100.00
2018-09-06T22:50:37.361Z,100.00
2018-09-06T22:53:11.976Z,100.00
2018-09-06T22:55:46.504Z,100.00
2018-09-06T22:58:21.122Z,100.00
2018-09-06T23:00:55.745Z,100.00
2018-09-06T23:03:35.542Z,100.00
2018-09-06T23:06:10.201Z,100.00
2018-09-06T23:08:44.907Z,100.00
2018-09-06T23:11:19.881Z,100.00
2018-09-06T23:13:54.589Z,100.00
2018-09-06T23:16:29.281Z,100.00
2018-09-06T23:19:04.025Z,100.00
2018-09-06T23:21:38.677Z,100.00
2018-09-06T23:24:25.224Z,100.00
2018-09-06T23:26:59.763Z,100.00
2018-09-06T23:29:34.244Z,100.00
2018-09-06T23:32:09.313Z,100.00
2018-09-06T23:34:44.010Z,100.00
2018-09-06T23:37:18.624Z,100.00
2018-09-06T23:39:53.608Z,100.00
2018-09-06T23:42:28.481Z,100.00
2018-09-06T23:45:03.088Z,100.00
2018-09-06T23:47:37.757Z,100.00
2018-09-06T23:50:12.397Z,100.00
2018-09-06T23:52:47.168Z,100.00
2018-09-06T23:55:22.309Z,100.00
2018-09-06T23:57:57.020Z,100.00
